sensor_id;sensor_type;location;lat;lon;timestamp;pressure;altitude;pressure_sealevel;temperature;humidity
18784;BME280;9520;50.954;6.968;2023-05-08T00:00:17;101391.06;;;23.50;55.12
18784;BME280;9520;50.954;6.968;2023-05-08T00:00:40;101398.81;;;23.56;54.96
18784;BME280;9520;50.954;6.968;2023-05-08T00:01:03;101402.38;;;23.56;55.05
18784;BME280;9520;50.954;6.968;2023-05-08T00:01:25;101396.03;;;23.57;55.15
18784;BME280;9520;50.954;6.968;2023-05-08T00:01:46;101405.81;;;23.58;55.07
18784;BME280;9520;50.954;6.968;2023-05-08T00:02:08;101398.53;;;23.60;54.99
18784;BME280;9520;50.954;6.968;2023-05-08T00:02:31;101401.31;;;23.59;55.06
18784;BME280;9520;50.954;6.968;2023-05-08T00:02:53;101400.44;;;23.58;54.97
18784;BME280;9520;50.954;6.968;2023-05-08T00:03:15;101402.19;;;23.59;55.05
18784;BME280;9520;50.954;6.968;2023-05-08T00:03:37;101395.75;;;23.62;55.02
18784;BME280;9520;50.954;6.968;2023-05-08T00:04:00;101400.38;;;23.60;54.87
18784;BME280;9520;50.954;6.968;2023-05-08T00:04:22;101402.19;;;23.59;54.90
18784;BME280;9520;50.954;6.968;2023-05-08T00:04:44;101399.50;;;23.59;54.93
18784;BME280;9520;50.954;6.968;2023-05-08T00:05:06;101389.84;;;23.55;55.01
18784;BME280;9520;50.954;6.968;2023-05-08T00:05:28;101406.88;;;23.56;54.98
18784;BME280;9520;50.954;6.968;2023-05-08T00:05:51;101406.00;;;23.55;54.90
18784;BME280;9520;50.954;6.968;2023-05-08T00:06:15;101397.13;;;23.53;55.07
18784;BME280;9520;50.954;6.968;2023-05-08T00:06:37;101400.81;;;23.52;55.00
18784;BME280;9520;50.954;6.968;2023-05-08T00:07:02;101399.94;;;23.52;55.25
18784;BME280;9520;50.954;6.968;2023-05-08T00:07:25;101394.81;;;23.47;55.42
18784;BME280;9520;50.954;6.968;2023-05-08T00:07:50;101392.25;;;23.44;55.22
18784;BME280;9520;50.954;6.968;2023-05-08T00:08:12;101393.69;;;23.51;55.49
18784;BME280;9520;50.954;6.968;2023-05-08T00:08:34;101398.00;;;23.54;55.29
18784;BME280;9520;50.954;6.968;2023-05-08T00:08:56;101398.88;;;23.54;55.47
18784;BME280;9520;50.954;6.968;2023-05-08T00:09:18;101404.28;;;23.54;55.34
18784;BME280;9520;50.954;6.968;2023-05-08T00:09:42;101403.41;;;23.54;55.41
18784;BME280;9520;50.954;6.968;2023-05-08T00:10:13;101397.13;;;23.53;55.38
18784;BME280;9520;50.954;6.968;2023-05-08T00:10:37;101401.50;;;23.56;55.36
18784;BME280;9520;50.954;6.968;2023-05-08T00:11:00;101393.59;;;23.53;55.35
18784;BME280;9520;50.954;6.968;2023-05-08T00:11:23;101400.91;;;23.51;55.43
18784;BME280;9520;50.954;6.968;2023-05-08T00:11:47;101401.84;;;23.50;55.33
18784;BME280;9520;50.954;6.968;2023-05-08T00:12:10;101408.09;;;23.50;55.44
18784;BME280;9520;50.954;6.968;2023-05-08T00:12:32;101403.66;;;23.49;55.62
18784;BME280;9520;50.954;6.968;2023-05-08T00:12:54;101394.91;;;23.46;55.49
18784;BME280;9520;50.954;6.968;2023-05-08T00:13:18;101401.09;;;23.48;55.48
18784;BME280;9520;50.954;6.968;2023-05-08T00:13:40;101401.09;;;23.48;55.53
18784;BME280;9520;50.954;6.968;2023-05-08T00:14:02;101399.16;;;23.50;55.40
18784;BME280;9520;50.954;6.968;2023-05-08T00:14:25;101400.91;;;23.51;55.48
18784;BME280;9520;50.954;6.968;2023-05-08T00:14:49;101405.34;;;23.52;55.44
18784;BME280;9520;50.954;6.968;2023-05-08T00:15:15;101411.47;;;23.54;55.53
18784;BME280;9520;50.954;6.968;2023-05-08T00:15:40;101400.69;;;23.54;55.47
18784;BME280;9520;50.954;6.968;2023-05-08T00:16:03;101401.69;;;23.53;55.30
18784;BME280;9520;50.954;6.968;2023-05-08T00:16:26;101402.53;;;23.53;55.53
18784;BME280;9520;50.954;6.968;2023-05-08T00:16:50;101406.09;;;23.54;55.40
18784;BME280;9520;50.954;6.968;2023-05-08T00:17:11;101411.59;;;23.52;55.38
18784;BME280;9520;50.954;6.968;2023-05-08T00:17:34;101407.06;;;23.53;55.30
18784;BME280;9520;50.954;6.968;2023-05-08T00:17:56;101401.69;;;23.53;55.43
18784;BME280;9520;50.954;6.968;2023-05-08T00:18:18;101406.09;;;23.54;55.36
18784;BME280;9520;50.954;6.968;2023-05-08T00:18:39;101398.28;;;23.49;55.37
18784;BME280;9520;50.954;6.968;2023-05-08T00:19:02;101402.63;;;23.52;55.28
18784;BME280;9520;50.954;6.968;2023-05-08T00:19:24;101409.84;;;23.51;55.42
18784;BME280;9520;50.954;6.968;2023-05-08T00:19:46;101404.47;;;23.51;55.39
18784;BME280;9520;50.954;6.968;2023-05-08T00:20:08;101406.19;;;23.52;55.53
18784;BME280;9520;50.954;6.968;2023-05-08T00:20:30;101412.53;;;23.51;55.46
18784;BME280;9520;50.954;6.968;2023-05-08T00:20:54;101405.34;;;23.52;55.39
18784;BME280;9520;50.954;6.968;2023-05-08T00:21:16;101412.63;;;23.50;55.44
18784;BME280;9520;50.954;6.968;2023-05-08T00:21:38;101407.34;;;23.48;55.32
18784;BME280;9520;50.954;6.968;2023-05-08T00:22:00;101409.06;;;23.49;55.58
18784;BME280;9520;50.954;6.968;2023-05-08T00:22:22;101412.63;;;23.50;55.19
18784;BME280;9520;50.954;6.968;2023-05-08T00:22:44;101402.16;;;23.44;55.46
18784;BME280;9520;50.954;6.968;2023-05-08T00:23:06;101411.84;;;23.48;55.50
18784;BME280;9520;50.954;6.968;2023-05-08T00:23:28;101410.88;;;23.49;55.54
18784;BME280;9520;50.954;6.968;2023-05-08T00:23:50;101408.97;;;23.51;55.42
18784;BME280;9520;50.954;6.968;2023-05-08T00:24:13;101402.13;;;23.45;55.51
18784;BME280;9520;50.954;6.968;2023-05-08T00:24:34;101410.72;;;23.52;55.32
18784;BME280;9520;50.954;6.968;2023-05-08T00:24:56;101408.97;;;23.51;55.42
18784;BME280;9520;50.954;6.968;2023-05-08T00:25:19;101410.72;;;23.52;55.51
18784;BME280;9520;50.954;6.968;2023-05-08T00:25:41;101408.19;;;23.49;55.51
18784;BME280;9520;50.954;6.968;2023-05-08T00:26:04;101410.72;;;23.52;55.38
18784;BME280;9520;50.954;6.968;2023-05-08T00:27:21;101411.09;;;23.44;55.55
18784;BME280;9520;50.954;6.968;2023-05-08T00:27:44;101404.09;;;23.42;55.48
18784;BME280;9520;50.954;6.968;2023-05-08T00:28:06;101411.28;;;23.41;55.50
18784;BME280;9520;50.954;6.968;2023-05-08T00:28:27;101412.25;;;23.40;55.74
18784;BME280;9520;50.954;6.968;2023-05-08T00:28:49;101410.50;;;23.39;55.78
18784;BME280;9520;50.954;6.968;2023-05-08T00:29:12;101408.84;;;23.37;55.80
18784;BME280;9520;50.954;6.968;2023-05-08T00:29:33;101414.16;;;23.38;55.76
18784;BME280;9520;50.954;6.968;2023-05-08T00:29:55;101412.31;;;23.39;55.71
18784;BME280;9520;50.954;6.968;2023-05-08T00:30:17;101412.31;;;23.39;55.80
18784;BME280;9520;50.954;6.968;2023-05-08T00:30:39;101410.69;;;23.36;55.89
18784;BME280;9520;50.954;6.968;2023-05-08T00:31:02;101410.41;;;23.41;56.01
18784;BME280;9520;50.954;6.968;2023-05-08T00:31:24;101413.13;;;23.41;55.90
18784;BME280;9520;50.954;6.968;2023-05-08T00:31:46;101423.00;;;23.40;55.83
18784;BME280;9520;50.954;6.968;2023-05-08T00:32:08;101415.00;;;23.39;55.83
18784;BME280;9520;50.954;6.968;2023-05-08T00:32:31;101417.53;;;23.42;55.82
18784;BME280;9520;50.954;6.968;2023-05-08T00:32:53;101412.16;;;23.42;55.76
18784;BME280;9520;50.954;6.968;2023-05-08T00:33:15;101412.16;;;23.42;55.73
18784;BME280;9520;50.954;6.968;2023-05-08T00:33:37;101411.22;;;23.43;55.72
18784;BME280;9520;50.954;6.968;2023-05-08T00:33:59;101419.28;;;23.43;55.79
18784;BME280;9520;50.954;6.968;2023-05-08T00:34:22;101412.16;;;23.42;55.84
18784;BME280;9520;50.954;6.968;2023-05-08T00:34:43;101410.22;;;23.44;55.72
18784;BME280;9520;50.954;6.968;2023-05-08T00:35:06;101408.53;;;23.43;55.84
18784;BME280;9520;50.954;6.968;2023-05-08T00:35:27;101418.41;;;23.42;56.03
18784;BME280;9520;50.954;6.968;2023-05-08T00:35:57;101412.88;;;23.45;55.65
18784;BME280;9520;50.954;6.968;2023-05-08T00:36:19;101411.09;;;23.44;55.68
18784;BME280;9520;50.954;6.968;2023-05-08T00:36:41;101406.09;;;23.38;55.65
18784;BME280;9520;50.954;6.968;2023-05-08T00:37:02;101409.31;;;23.45;55.56
18784;BME280;9520;50.954;6.968;2023-05-08T00:37:25;101416.44;;;23.46;55.66
18784;BME280;9520;50.954;6.968;2023-05-08T00:37:47;101418.19;;;23.47;55.37
18784;BME280;9520;50.954;6.968;2023-05-08T00:38:09;101418.19;;;23.47;55.68
18784;BME280;9520;50.954;6.968;2023-05-08T00:38:31;101409.31;;;23.45;55.67
18784;BME280;9520;50.954;6.968;2023-05-08T00:38:53;101419.19;;;23.44;55.50
18784;BME280;9520;50.954;6.968;2023-05-08T00:39:16;101420.09;;;23.45;55.73
18784;BME280;9520;50.954;6.968;2023-05-08T00:39:37;101417.47;;;23.43;55.71
18784;BME280;9520;50.954;6.968;2023-05-08T00:39:59;101422.00;;;23.43;55.69
18784;BME280;9520;50.954;6.968;2023-05-08T00:40:22;101409.47;;;23.42;55.69
18784;BME280;9520;50.954;6.968;2023-05-08T00:40:44;101411.22;;;23.43;55.77
18784;BME280;9520;50.954;6.968;2023-05-08T00:41:07;101422.00;;;23.43;55.90
18784;BME280;9520;50.954;6.968;2023-05-08T00:41:28;101405.81;;;23.43;55.71
18784;BME280;9520;50.954;6.968;2023-05-08T00:41:50;101411.22;;;23.43;55.65
18784;BME280;9520;50.954;6.968;2023-05-08T00:42:12;101405.97;;;23.40;55.63
18784;BME280;9520;50.954;6.968;2023-05-08T00:42:34;101406.31;;;23.34;55.78
18784;BME280;9520;50.954;6.968;2023-05-08T00:42:56;101415.81;;;23.41;55.73
18784;BME280;9520;50.954;6.968;2023-05-08T00:43:18;101421.19;;;23.41;55.71
18784;BME280;9520;50.954;6.968;2023-05-08T00:43:40;101416.69;;;23.41;55.83
18784;BME280;9520;50.954;6.968;2023-05-08T00:44:02;101419.44;;;23.40;55.98
18784;BME280;9520;50.954;6.968;2023-05-08T00:44:25;101417.47;;;23.43;55.90
18784;BME280;9520;50.954;6.968;2023-05-08T00:44:47;101416.59;;;23.43;55.87
18784;BME280;9520;50.954;6.968;2023-05-08T00:45:09;101420.25;;;23.42;55.88
18784;BME280;9520;50.954;6.968;2023-05-08T00:45:34;101420.25;;;23.42;55.71
18784;BME280;9520;50.954;6.968;2023-05-08T00:45:59;101417.53;;;23.42;55.79
18784;BME280;9520;50.954;6.968;2023-05-08T00:46:21;101417.47;;;23.43;55.78
18784;BME280;9520;50.954;6.968;2023-05-08T00:46:44;101423.66;;;23.45;55.69
18784;BME280;9520;50.954;6.968;2023-05-08T00:47:08;101424.56;;;23.44;55.73
18784;BME280;9520;50.954;6.968;2023-05-08T00:47:30;101417.47;;;23.43;55.64
18784;BME280;9520;50.954;6.968;2023-05-08T00:47:52;101406.16;;;23.37;55.63
18784;BME280;9520;50.954;6.968;2023-05-08T00:48:14;101423.69;;;23.44;55.66
18784;BME280;9520;50.954;6.968;2023-05-08T00:48:38;101418.56;;;23.39;55.47
18784;BME280;9520;50.954;6.968;2023-05-08T00:49:00;101423.09;;;23.39;55.57
18784;BME280;9520;50.954;6.968;2023-05-08T00:49:22;101412.44;;;23.37;55.48
18784;BME280;9520;50.954;6.968;2023-05-08T00:49:44;101421.28;;;23.39;55.37
18784;BME280;9520;50.954;6.968;2023-05-08T00:50:08;101421.38;;;23.38;55.50
18784;BME280;9520;50.954;6.968;2023-05-08T00:50:31;101418.69;;;23.38;55.38
18784;BME280;9520;50.954;6.968;2023-05-08T00:50:53;101424.94;;;23.38;55.37
18784;BME280;9520;50.954;6.968;2023-05-08T00:51:16;101418.56;;;23.39;55.44
18784;BME280;9520;50.954;6.968;2023-05-08T00:51:39;101422.13;;;23.40;55.43
18784;BME280;9520;50.954;6.968;2023-05-08T00:52:02;101419.63;;;23.37;55.45
18784;BME280;9520;50.954;6.968;2023-05-08T00:52:26;101422.31;;;23.37;55.40
18784;BME280;9520;50.954;6.968;2023-05-08T00:52:49;101416.16;;;23.35;55.17
18784;BME280;9520;50.954;6.968;2023-05-08T00:53:11;101418.75;;;23.36;54.83
18784;BME280;9520;50.954;6.968;2023-05-08T00:53:38;101425.09;;;23.35;54.48
18784;BME280;9520;50.954;6.968;2023-05-08T00:54:01;101418.94;;;23.33;54.26
18784;BME280;9520;50.954;6.968;2023-05-08T00:54:25;101418.84;;;23.35;54.50
18784;BME280;9520;50.954;6.968;2023-05-08T00:54:48;101416.41;;;23.30;54.93
18784;BME280;9520;50.954;6.968;2023-05-08T00:55:10;101421.63;;;23.33;55.31
18784;BME280;9520;50.954;6.968;2023-05-08T00:55:33;101424.22;;;23.35;55.10
18784;BME280;9520;50.954;6.968;2023-05-08T00:55:55;101418.75;;;23.36;55.35
18784;BME280;9520;50.954;6.968;2023-05-08T00:56:19;101420.56;;;23.36;55.15
18784;BME280;9520;50.954;6.968;2023-05-08T00:56:41;101428.66;;;23.36;54.91
18784;BME280;9520;50.954;6.968;2023-05-08T00:57:05;101430.47;;;23.35;55.07
18784;BME280;9520;50.954;6.968;2023-05-08T00:57:28;101421.53;;;23.35;54.98
18784;BME280;9520;50.954;6.968;2023-05-08T00:57:52;101425.09;;;23.35;55.09
18784;BME280;9520;50.954;6.968;2023-05-08T00:58:14;101416.06;;;23.36;54.59
18784;BME280;9520;50.954;6.968;2023-05-08T00:58:38;101419.72;;;23.35;54.73
18784;BME280;9520;50.954;6.968;2023-05-08T00:59:00;101418.06;;;23.33;54.76
18784;BME280;9520;50.954;6.968;2023-05-08T00:59:23;101396.06;;;23.24;54.73
18784;BME280;9520;50.954;6.968;2023-05-08T00:59:48;101410.25;;;23.28;54.76
18784;BME280;9520;50.954;6.968;2023-05-08T01:00:11;101419.72;;;23.35;54.58
18784;BME280;9520;50.954;6.968;2023-05-08T01:00:33;101412.84;;;23.30;54.57
18784;BME280;9520;50.954;6.968;2023-05-08T01:00:57;101420.03;;;23.29;54.67
18784;BME280;9520;50.954;6.968;2023-05-08T01:01:21;101427.09;;;23.32;54.64
18784;BME280;9520;50.954;6.968;2023-05-08T01:01:43;101418.06;;;23.33;54.70
18784;BME280;9520;50.954;6.968;2023-05-08T01:02:06;101422.66;;;23.31;54.71
18784;BME280;9520;50.954;6.968;2023-05-08T01:02:29;101418.41;;;23.27;54.80
18784;BME280;9520;50.954;6.968;2023-05-08T01:02:54;101415.72;;;23.27;54.79
18784;BME280;9520;50.954;6.968;2023-05-08T01:03:16;101417.28;;;23.31;54.19
18784;BME280;9520;50.954;6.968;2023-05-08T01:03:38;101422.84;;;23.28;54.13
18784;BME280;9520;50.954;6.968;2023-05-08T01:04:01;101420.91;;;23.30;54.58
18784;BME280;9520;50.954;6.968;2023-05-08T01:04:25;101420.91;;;23.30;54.80
18784;BME280;9520;50.954;6.968;2023-05-08T01:04:47;101417.47;;;23.28;54.73
18784;BME280;9520;50.954;6.968;2023-05-08T01:05:10;101421.19;;;23.25;54.86
18784;BME280;9520;50.954;6.968;2023-05-08T01:05:32;101425.69;;;23.24;54.67
18784;BME280;9520;50.954;6.968;2023-05-08T01:05:55;101426.47;;;23.27;54.39
18784;BME280;9520;50.954;6.968;2023-05-08T01:06:17;101425.00;;;23.21;54.25
18784;BME280;9520;50.954;6.968;2023-05-08T01:06:39;101424.13;;;23.20;53.99
18784;BME280;9520;50.954;6.968;2023-05-08T01:07:01;101414.56;;;23.15;53.71
18784;BME280;9520;50.954;6.968;2023-05-08T01:07:23;101420.50;;;23.21;53.75
18784;BME280;9520;50.954;6.968;2023-05-08T01:07:46;101419.69;;;23.19;53.54
18784;BME280;9520;50.954;6.968;2023-05-08T01:08:09;101425.94;;;23.20;54.17
18784;BME280;9520;50.954;6.968;2023-05-08T01:08:31;101418.75;;;23.20;54.59
18784;BME280;9520;50.954;6.968;2023-05-08T01:08:53;101419.53;;;23.22;54.65
18784;BME280;9520;50.954;6.968;2023-05-08T01:09:16;101416.94;;;23.21;54.33
18784;BME280;9520;50.954;6.968;2023-05-08T01:09:37;101418.66;;;23.22;54.27
18784;BME280;9520;50.954;6.968;2023-05-08T01:10:00;101414.16;;;23.22;53.70
18784;BME280;9520;50.954;6.968;2023-05-08T01:10:22;101416.84;;;23.22;53.57
18784;BME280;9520;50.954;6.968;2023-05-08T01:10:57;101416.84;;;23.22;53.84
18784;BME280;9520;50.954;6.968;2023-05-08T01:11:27;101419.53;;;23.22;53.79
18784;BME280;9520;50.954;6.968;2023-05-08T01:11:55;101418.31;;;23.12;54.59
18784;BME280;9520;50.954;6.968;2023-05-08T01:12:23;101421.88;;;23.13;54.57
18784;BME280;9520;50.954;6.968;2023-05-08T01:12:57;101419.88;;;23.16;54.69
18784;BME280;9520;50.954;6.968;2023-05-08T01:13:29;101420.75;;;23.17;54.94
18784;BME280;9520;50.954;6.968;2023-05-08T01:14:03;101416.25;;;23.17;54.47
18784;BME280;9520;50.954;6.968;2023-05-08T01:14:31;101419.81;;;23.18;54.62
18784;BME280;9520;50.954;6.968;2023-05-08T01:15:04;101414.50;;;23.16;54.43
18784;BME280;9520;50.954;6.968;2023-05-08T01:15:29;101413.69;;;23.14;54.24
18784;BME280;9520;50.954;6.968;2023-05-08T01:16:05;101413.81;;;23.13;53.95
18784;BME280;9520;50.954;6.968;2023-05-08T01:16:34;101420.06;;;23.13;53.93
18784;BME280;9520;50.954;6.968;2023-05-08T01:17:10;101412.94;;;23.12;54.23
18784;BME280;9520;50.954;6.968;2023-05-08T01:17:44;101413.81;;;23.13;53.90
18784;BME280;9520;50.954;6.968;2023-05-08T01:18:14;101405.97;;;23.08;53.87
18784;BME280;9520;50.954;6.968;2023-05-08T01:18:43;101414.75;;;23.12;54.21
18784;BME280;9520;50.954;6.968;2023-05-08T01:19:23;101414.69;;;23.13;54.35
18784;BME280;9520;50.954;6.968;2023-05-08T01:20:03;101412.75;;;23.15;54.34
18784;BME280;9520;50.954;6.968;2023-05-08T01:20:33;101421.69;;;23.16;54.41
18784;BME280;9520;50.954;6.968;2023-05-08T01:21:02;101421.69;;;23.16;54.38
18784;BME280;9520;50.954;6.968;2023-05-08T01:21:37;101414.69;;;23.13;54.12
18784;BME280;9520;50.954;6.968;2023-05-08T01:22:28;101422.81;;;23.12;54.26
18784;BME280;9520;50.954;6.968;2023-05-08T01:23:07;101417.94;;;23.03;54.38
18784;BME280;9520;50.954;6.968;2023-05-08T01:24:24;101419.59;;;23.05;54.35
18784;BME280;9520;50.954;6.968;2023-05-08T01:25:09;101426.03;;;23.03;54.15
18784;BME280;9520;50.954;6.968;2023-05-08T01:26:01;101426.78;;;23.05;54.26
18784;BME280;9520;50.954;6.968;2023-05-08T01:26:59;101426.78;;;23.05;54.26
18784;BME280;9520;50.954;6.968;2023-05-08T01:27:54;101428.53;;;23.06;54.16
18784;BME280;9520;50.954;6.968;2023-05-08T01:28:37;101422.28;;;23.05;54.16
18784;BME280;9520;50.954;6.968;2023-05-08T01:29:41;101423.16;;;23.06;54.56
18784;BME280;9520;50.954;6.968;2023-05-08T01:30:14;101419.69;;;23.04;54.54
18784;BME280;9520;50.954;6.968;2023-05-08T01:30:58;101419.69;;;23.04;54.33
18784;BME280;9520;50.954;6.968;2023-05-08T01:31:32;101422.28;;;23.05;54.41
18784;BME280;9520;50.954;6.968;2023-05-08T01:32:09;101428.63;;;23.04;54.41
18784;BME280;9520;50.954;6.968;2023-05-08T01:32:34;101419.69;;;23.04;54.31
18784;BME280;9520;50.954;6.968;2023-05-08T01:33:01;101424.97;;;23.05;54.37
18784;BME280;9520;50.954;6.968;2023-05-08T01:33:29;101419.59;;;23.05;54.34
18784;BME280;9520;50.954;6.968;2023-05-08T01:33:59;101421.34;;;23.06;54.34
18784;BME280;9520;50.954;6.968;2023-05-08T01:34:30;101424.97;;;23.05;54.39
18784;BME280;9520;50.954;6.968;2023-05-08T01:34:59;101419.44;;;23.08;54.41
18784;BME280;9520;50.954;6.968;2023-05-08T01:35:29;101421.16;;;23.09;54.31
18784;BME280;9520;50.954;6.968;2023-05-08T01:35:58;101430.97;;;23.10;54.43
18784;BME280;9520;50.954;6.968;2023-05-08T01:36:24;101417.09;;;23.02;54.42
18784;BME280;9520;50.954;6.968;2023-05-08T01:36:52;101427.41;;;23.10;54.22
18784;BME280;9520;50.954;6.968;2023-05-08T01:37:20;101429.22;;;23.09;54.34
18784;BME280;9520;50.954;6.968;2023-05-08T01:37:49;101430.28;;;23.07;54.07
18784;BME280;9520;50.954;6.968;2023-05-08T01:38:18;101423.34;;;23.03;54.27
18784;BME280;9520;50.954;6.968;2023-05-08T01:38:49;101430.22;;;23.08;54.29
18784;BME280;9520;50.954;6.968;2023-05-08T01:39:18;101429.41;;;23.06;54.44
18784;BME280;9520;50.954;6.968;2023-05-08T01:39:44;101429.41;;;23.06;54.60
18784;BME280;9520;50.954;6.968;2023-05-08T01:40:11;101430.28;;;23.07;54.25
18784;BME280;9520;50.954;6.968;2023-05-08T01:40:40;101426.66;;;23.08;54.37
18784;BME280;9520;50.954;6.968;2023-05-08T01:41:08;101432.91;;;23.08;54.31
18784;BME280;9520;50.954;6.968;2023-05-08T01:41:34;101424.72;;;23.10;54.36
18784;BME280;9520;50.954;6.968;2023-05-08T01:42:03;101423.00;;;23.09;54.34
18784;BME280;9520;50.954;6.968;2023-05-08T01:42:33;101422.22;;;23.07;54.30
18784;BME280;9520;50.954;6.968;2023-05-08T01:43:02;101425.69;;;23.09;54.50
18784;BME280;9520;50.954;6.968;2023-05-08T01:43:32;101427.59;;;23.07;54.27
18784;BME280;9520;50.954;6.968;2023-05-08T01:44:08;101428.63;;;23.04;54.03
18784;BME280;9520;50.954;6.968;2023-05-08T01:44:35;101423.22;;;23.04;54.12
18784;BME280;9520;50.954;6.968;2023-05-08T01:45:00;101428.88;;;23.00;54.03
18784;BME280;9520;50.954;6.968;2023-05-08T01:45:26;101427.84;;;23.02;54.04
18784;BME280;9520;50.954;6.968;2023-05-08T01:45:52;101427.91;;;23.01;54.27
18784;BME280;9520;50.954;6.968;2023-05-08T01:46:17;101409.59;;;22.92;54.42
18784;BME280;9520;50.954;6.968;2023-05-08T01:46:43;101425.41;;;22.98;54.13
18784;BME280;9520;50.954;6.968;2023-05-08T01:47:08;101429.06;;;22.97;53.96
18784;BME280;9520;50.954;6.968;2023-05-08T01:47:32;101424.88;;;22.91;54.15
18784;BME280;9520;50.954;6.968;2023-05-08T01:48:02;101431.75;;;22.97;54.49
18784;BME280;9520;50.954;6.968;2023-05-08T01:48:30;101430.00;;;22.96;54.20
18784;BME280;9520;50.954;6.968;2023-05-08T01:48:58;101423.75;;;22.95;53.97
18784;BME280;9520;50.954;6.968;2023-05-08T01:49:23;101433.75;;;22.93;54.08
18784;BME280;9520;50.954;6.968;2023-05-08T01:49:49;101434.59;;;22.94;54.12
18784;BME280;9520;50.954;6.968;2023-05-08T01:50:19;101435.44;;;22.94;53.90
18784;BME280;9520;50.954;6.968;2023-05-08T01:50:44;101443.53;;;22.94;54.08
18784;BME280;9520;50.954;6.968;2023-05-08T01:51:13;101430.94;;;22.95;54.11
18784;BME280;9520;50.954;6.968;2023-05-08T01:51:42;101437.38;;;22.92;54.13
18784;BME280;9520;50.954;6.968;2023-05-08T01:52:13;101440.81;;;22.94;53.77
18784;BME280;9520;50.954;6.968;2023-05-08T01:52:42;101440.00;;;22.94;53.93
18784;BME280;9520;50.954;6.968;2023-05-08T01:53:09;101432.88;;;22.93;54.20
18784;BME280;9520;50.954;6.968;2023-05-08T01:53:36;101436.50;;;22.92;53.94
18784;BME280;9520;50.954;6.968;2023-05-08T01:54:03;101440.81;;;22.94;53.76
18784;BME280;9520;50.954;6.968;2023-05-08T01:54:30;101430.56;;;22.85;53.99
18784;BME280;9520;50.954;6.968;2023-05-08T01:54:58;101440.81;;;22.94;54.01
18784;BME280;9520;50.954;6.968;2023-05-08T01:55:25;101444.31;;;22.96;53.81
18784;BME280;9520;50.954;6.968;2023-05-08T01:55:52;101448.84;;;22.96;53.66
18784;BME280;9520;50.954;6.968;2023-05-08T01:56:20;101440.94;;;22.93;53.83
18784;BME280;9520;50.954;6.968;2023-05-08T01:56:45;101443.44;;;22.96;54.12
18784;BME280;9520;50.954;6.968;2023-05-08T01:57:09;101440.75;;;22.96;54.06
18784;BME280;9520;50.954;6.968;2023-05-08T01:57:34;101447.00;;;22.96;54.17
18784;BME280;9520;50.954;6.968;2023-05-08T01:57:58;101444.16;;;22.99;54.28
18784;BME280;9520;50.954;6.968;2023-05-08T01:58:23;101446.00;;;22.99;54.40
18784;BME280;9520;50.954;6.968;2023-05-08T01:58:46;101447.00;;;22.96;54.15
18784;BME280;9520;50.954;6.968;2023-05-08T01:59:13;101441.63;;;22.96;53.89
18784;BME280;9520;50.954;6.968;2023-05-08T01:59:40;101447.81;;;22.98;53.83
18784;BME280;9520;50.954;6.968;2023-05-08T02:00:05;101441.00;;;22.91;53.56
18784;BME280;9520;50.954;6.968;2023-05-08T02:00:31;101446.22;;;22.94;53.74
18784;BME280;9520;50.954;6.968;2023-05-08T02:00:53;101446.22;;;22.94;53.79
18784;BME280;9520;50.954;6.968;2023-05-08T02:01:17;101443.63;;;22.93;54.00
18784;BME280;9520;50.954;6.968;2023-05-08T02:01:41;101452.47;;;22.95;54.04
18784;BME280;9520;50.954;6.968;2023-05-08T02:02:04;101448.06;;;22.94;53.91
18784;BME280;9520;50.954;6.968;2023-05-08T02:02:29;101441.69;;;22.95;54.11
18784;BME280;9520;50.954;6.968;2023-05-08T02:02:53;101446.31;;;22.93;54.02
18784;BME280;9520;50.954;6.968;2023-05-08T02:03:19;101449.00;;;22.93;53.98
18784;BME280;9520;50.954;6.968;2023-05-08T02:03:43;101444.66;;;22.90;53.88
18784;BME280;9520;50.954;6.968;2023-05-08T02:04:07;101446.47;;;22.90;53.93
18784;BME280;9520;50.954;6.968;2023-05-08T02:04:32;101451.00;;;22.89;53.68
18784;BME280;9520;50.954;6.968;2023-05-08T02:05:01;101447.44;;;22.89;53.95
18784;BME280;9520;50.954;6.968;2023-05-08T02:05:26;101447.44;;;22.89;53.95
18784;BME280;9520;50.954;6.968;2023-05-08T02:05:49;101450.22;;;22.87;53.79
18784;BME280;9520;50.954;6.968;2023-05-08T02:06:15;101450.03;;;22.90;53.75
18784;BME280;9520;50.954;6.968;2023-05-08T02:06:39;101451.78;;;22.91;53.71
18784;BME280;9520;50.954;6.968;2023-05-08T02:07:02;101450.03;;;22.90;53.67
18784;BME280;9520;50.954;6.968;2023-05-08T02:07:24;101449.00;;;22.93;53.88
18784;BME280;9520;50.954;6.968;2023-05-08T02:07:48;101453.34;;;22.95;53.99
18784;BME280;9520;50.954;6.968;2023-05-08T02:08:12;101450.75;;;22.94;53.89
18784;BME280;9520;50.954;6.968;2023-05-08T02:08:36;101449.88;;;22.93;54.01
18784;BME280;9520;50.954;6.968;2023-05-08T02:08:58;101447.25;;;22.92;54.02
18784;BME280;9520;50.954;6.968;2023-05-08T02:09:23;101440.31;;;22.88;54.16
18784;BME280;9520;50.954;6.968;2023-05-08T02:09:46;101445.53;;;22.91;53.93
18784;BME280;9520;50.954;6.968;2023-05-08T02:10:11;101431.63;;;22.83;54.08
18784;BME280;9520;50.954;6.968;2023-05-08T02:10:35;101444.75;;;22.89;54.45
18784;BME280;9520;50.954;6.968;2023-05-08T02:10:59;101450.22;;;22.87;54.03
18784;BME280;9520;50.954;6.968;2023-05-08T02:11:22;101448.47;;;22.86;54.45
18784;BME280;9520;50.954;6.968;2023-05-08T02:11:47;101447.59;;;22.86;54.16
18784;BME280;9520;50.954;6.968;2023-05-08T02:12:12;101448.47;;;22.86;54.20
18784;BME280;9520;50.954;6.968;2023-05-08T02:12:35;101452.09;;;22.85;53.98
18784;BME280;9520;50.954;6.968;2023-05-08T02:12:58;101448.47;;;22.86;53.81
18784;BME280;9520;50.954;6.968;2023-05-08T02:13:24;101448.47;;;22.86;54.06
18784;BME280;9520;50.954;6.968;2023-05-08T02:13:48;101441.50;;;22.82;54.01
18784;BME280;9520;50.954;6.968;2023-05-08T02:14:12;101445.16;;;22.81;54.06
18784;BME280;9520;50.954;6.968;2023-05-08T02:14:36;101448.53;;;22.85;53.81
18784;BME280;9520;50.954;6.968;2023-05-08T02:15:00;101447.69;;;22.84;53.68
18784;BME280;9520;50.954;6.968;2023-05-08T02:15:23;101439.84;;;22.79;53.97
18784;BME280;9520;50.954;6.968;2023-05-08T02:15:47;101447.44;;;22.89;53.56